• Join FlightAware (Why Join?)
  • Login
  • US Flag 
07:51AM EDT


 

Airport Tracker/Info


-or-


 

Live Flight TrackerFlight Track Log ✈ UAL789 ✈ 24-Jun-2013 ✈ KPDX - KDEN

Flight Track Log - Related Links

Times and Time Zones

All times are in EDT time to prevent confusion due to time zone crossing. See the UAL789 flight status page for this flight to view local times or setup timezone preferences in your user account.

Time Position Orientation Groundspeed Altitude Reporting Facility
EDT Latitude Longitude Course Direction KTS MPH feet Rate Location/Type
10:12AM 45.5972 -122.6028 293° West 150 173 700  Level Seattle Center
10:13AM 45.6181 -122.6744 293° West 206 237 2,400 2,100 Climbing Seattle Center
10:14AM 45.6511 -122.7631 298° West 272 313 5,200 3,000 Climbing Seattle Center
10:15AM 45.6003 -122.8233 220° Southwest 274 315 8,900 2,640 Climbing Seattle Center
10:16AM 45.5533 -122.7247 124° Southeast 312 359 11,000 2,280 Climbing Seattle Center
10:17AM 45.5075 -122.6089 119° Southeast 331 381 13,600 2,040 Climbing Seattle Center
10:18AM 45.4714 -122.4778 111° Southeast 352 405 15,200 1,920 Climbing Seattle Center
10:19AM 45.4328 -122.3406 112° Southeast 369 425 17,600 2,040 Climbing Seattle Center
10:20AM 45.3925 -122.1992 112° Southeast 382 440 19,400 1,860 Climbing Seattle Center
10:21AM 45.3511 -122.0514 112° Southeast 399 459 21,400 1,680 Climbing Seattle Center
10:22AM 45.3111 -121.9125 112° Southeast 403 464 22,800 1,380 Climbing Seattle Center
10:23AM 45.2678 -121.7608 112° Southeast 413 475 24,300 1,440 Climbing Seattle Center
10:24AM 45.2219 -121.6075 113° Southeast 421 484 25,800 1,320 Climbing Seattle Center
10:25AM 45.1767 -121.4497 112° Southeast 429 494 27,100 1,380 Climbing Seattle Center
10:26AM 45.1186 -121.2575 113° Southeast 440 506 28,600 1,320 Climbing Seattle Center
10:27AM 45.0719 -121.0942 112° Southeast 447 514 29,800 1,080 Climbing Seattle Center
10:28AM 45.0219 -120.9289 113° Southeast 458 527 30,800 1,020 Climbing Seattle Center
10:29AM 44.9717 -120.7617 113° Southeast 463 533 31,900 1,140 Climbing Seattle Center
10:30AM 44.9211 -120.5950 113° Southeast 464 534 33,200 1,200 Climbing Seattle Center
10:31AM 44.8714 -120.4331 113° Southeast 455 524 34,400 1,020 Climbing Seattle Center
10:32AM 44.8222 -120.2717 113° Southeast 454 522 35,300 900 Climbing Seattle Center
10:33AM 44.7731 -120.1122 113° Southeast 453 521 36,300 780 Climbing Seattle Center
10:34AM 44.7244 -119.9550 113° Southeast 449 517 37,000 300 Climbing Seattle Center
10:35AM 44.6658 -119.7658 113° Southeast 447 514 37,000  Level Seattle Center
10:36AM 44.6181 -119.6050 113° Southeast 451 519 37,000  Level Seattle Center
10:37AM 44.5700 -119.4406 112° Southeast 456 525 37,000  Level Seattle Center
10:38AM 44.5222 -119.2778 112° Southeast 456 525 37,000  Level Seattle Center
10:39AM 44.4733 -119.1133 113° Southeast 459 528 37,000  Level Seattle Center
10:40AM 44.4253 -118.9494 112° Southeast 457 526 37,000  Level Seattle Center
10:41AM 44.3750 -118.7875 113° Southeast 456 525 37,000  Level Seattle Center
10:42AM 44.3236 -118.6247 114° Southeast 459 528 37,000  Level Seattle Center
10:43AM 44.2758 -118.4597 112° Southeast 460 529 37,000  Level Seattle Center
10:44AM 44.2267 -118.2961 113° Southeast 458 527 37,000  Level Seattle Center
10:45AM 44.1686 -118.1153 114° Southeast 463 533 37,000  Level Seattle Center
10:47AM 44.1208 -117.9600 113° Southeast 459 528 37,000  Level Seattle Center
10:48AM 44.0642 -117.7769 113° Southeast 462 532 37,000  Level Seattle Center
10:49AM 44.0042 -117.5942 114° Southeast 459 528 37,000  Level Salt Lake Center
10:50AM 43.9481 -117.4125 113° Southeast 461 531 37,000  Level Salt Lake Center
10:51AM 43.8983 -117.2569 114° Southeast 462 532 37,000  Level Salt Lake Center
10:52AM 43.8403 -117.0744 114° Southeast 464 534 37,000  Level Salt Lake Center
10:53AM 43.7886 -116.9178 115° Southeast 467 537 37,000  Level Salt Lake Center
10:54AM 43.7383 -116.7597 114° Southeast 471 542 37,000  Level Salt Lake Center
10:55AM 43.6786 -116.5764 114° Southeast 472 543 37,000  Level Salt Lake Center
10:56AM 43.6272 -116.4192 114° Southeast 471 542 37,000  Level Salt Lake Center
10:57AM 43.5678 -116.2356 114° Southeast 471 542 37,000  Level Salt Lake Center
10:58AM 43.5311 -116.0694 107° East 476 548 37,000  Level Salt Lake Center
10:59AM 43.4961 -115.8697 104° East 481 554 37,000  Level Salt Lake Center
11:00AM 43.4650 -115.6997 104° East 480 552 37,000  Level Salt Lake Center
11:01AM 43.4297 -115.5006 104° East 481 554 37,000  Level Salt Lake Center
11:02AM 43.3981 -115.3297 104° East 482 555 37,000  Level Salt Lake Center
11:03AM 43.3617 -115.1308 104° East 483 556 37,000  Level Salt Lake Center
11:04AM 43.3300 -114.9597 104° East 484 557 37,000  Level Salt Lake Center
11:05AM 43.2919 -114.7594 105° East 487 560 37,000  Level Salt Lake Center
11:06AM 43.2594 -114.5878 105° East 486 559 37,000  Level Salt Lake Center
11:07AM 43.2217 -114.3869 104° East 486 559 37,000  Level Salt Lake Center
11:08AM 43.1881 -114.2111 105° East 493 567 37,000  Level Salt Lake Center
11:09AM 43.1522 -114.0314 105° East 492 566 37,000  Level Salt Lake Center
11:10AM 43.1161 -113.8503 105° East 491 565 37,000  Level Salt Lake Center
11:11AM 43.0761 -113.6528 105° East 485 558 37,000  Level Salt Lake Center
11:13AM 43.0417 -113.4819 105° East 488 562 37,000  Level Salt Lake Center
11:14AM 43.0019 -113.2836 105° East 487 560 37,000  Level Salt Lake Center
11:15AM 42.9664 -113.1139 106° East 487 560 37,000  Level Salt Lake Center
11:16AM 42.9253 -112.9147 106° East 489 563 37,000  Level Salt Lake Center
11:17AM 42.8897 -112.7439 106° East 490 564 37,000  Level Salt Lake Center
11:18AM 42.8364 -112.5481 110° East 494 568 37,000  Level Salt Lake Center
11:19AM 42.7828 -112.3850 114° Southeast 493 567 37,000  Level Salt Lake Center
11:20AM 42.7192 -112.1972 115° Southeast 491 565 37,000  Level Salt Lake Center
11:21AM 42.6622 -112.0297 115° Southeast 491 565 37,000  Level Salt Lake Center
11:22AM 42.6058 -111.8625 115° Southeast 488 562 37,000  Level Salt Lake Center
11:23AM 42.5497 -111.6961 115° Southeast 486 559 37,000  Level Salt Lake Center
11:24AM 42.4922 -111.5319 115° Southeast 483 556 37,000  Level Salt Lake Center
11:25AM 42.4242 -111.3339 115° Southeast 483 556 37,000  Level Salt Lake Center
11:26AM 42.3672 -111.1708 115° Southeast 480 552 37,000  Level Salt Lake Center
11:27AM 42.3117 -111.0078 115° Southeast 478 550 37,000  Level Salt Lake Center
11:28AM 42.2508 -110.8358 115° Southeast 473 544 37,000  Level Salt Lake Center
11:29AM 42.1950 -110.6811 116° Southeast 479 551 37,000  Level Salt Lake Center
11:30AM 42.1325 -110.5022 115° Southeast 475 547 37,100  Climbing Salt Lake Center
11:31AM 42.0764 -110.3494 116° Southeast 476 548 37,000 -60 Descending Salt Lake Center
11:32AM 42.0136 -110.1728 116° Southeast 471 542 37,000  Level Salt Lake Center
11:33AM 41.9597 -110.0206 115° Southeast 471 542 37,000  Level Salt Lake Center
11:34AM 41.9044 -109.8686 116° Southeast 473 544 37,000  Level Salt Lake Center
11:35AM 41.8392 -109.6914 116° Southeast 474 545 37,000  Level Salt Lake Center
11:36AM 41.7833 -109.5389 116° Southeast 476 548 37,000  Level Salt Lake Center
11:37AM 41.7186 -109.3603 116° Southeast 476 548 37,000  Level Salt Lake Center
11:38AM 41.6628 -109.2067 116° Southeast 476 548 37,000  Level Salt Lake Center
11:39AM 41.5947 -109.0267 117° Southeast 478 550 37,000  Level Salt Lake Center
11:40AM 41.5464 -108.8678 112° Southeast 475 547 37,000  Level Salt Lake Center
11:41AM 41.4986 -108.7131 112° Southeast 470 541 37,000  Level Salt Lake Center
11:42AM 41.4444 -108.5336 112° Southeast 467 537 37,000  Level Salt Lake Center
11:44AM 41.4025 -108.3786 110° East 464 534 37,000  Level Salt Lake Center
11:45AM 41.3531 -108.1978 110° East 465 535 37,000  Level Salt Lake Center
11:46AM 41.3106 -108.0442 110° East 463 533 37,000  Level Salt Lake Center
11:47AM 41.2611 -107.8647 110° East 464 534 37,000  Level Salt Lake Center
11:48AM 41.2031 -107.6564 110° East 468 539 37,000  Level Denver Center
11:49AM 41.1514 -107.4764 111° Southeast 468 539 37,000  Level Denver Center
11:50AM 41.1078 -107.3200 110° East 471 542 37,000  Level Denver Center
11:51AM 41.0639 -107.1669 111° Southeast 467 537 37,000 -240 Level Denver Center
11:52AM 41.0128 -106.9853 110° East 470 541 36,600 -660 Descending Denver Center
11:53AM 40.9681 -106.8331 111° Southeast 466 536 35,700 -960 Descending Denver Center
11:54AM 40.9192 -106.6600 110° East 455 524 34,700 -1,020 Descending Denver Center
11:55AM 40.8761 -106.5142 111° Southeast 448 516 33,700 -1,620 Descending Denver Center
11:56AM 40.8244 -106.3406 111° Southeast 455 524 31,400 -2,100 Descending Denver Center
11:57AM 40.7800 -106.1919 112° Southeast 456 525 29,400 -2,100 Descending Denver Center
11:58AM 40.7311 -106.0189 110° East 444 511 27,100 -2,100 Descending Denver Center
11:59AM 40.6858 -105.8717 112° Southeast 436 502 25,100 -1,980 Descending Denver Center
12:00PM 40.6422 -105.7286 112° Southeast 423 487 23,100 -1,860 Descending Denver Center
12:01PM 40.6014 -105.5889 111° Southeast 412 474 21,300 -1,800 Descending Denver Center
12:02PM 40.5600 -105.4539 112° Southeast 401 461 19,400 -1,680 Descending Denver Center
12:03PM 40.5197 -105.3222 112° Southeast 393 452 17,900 -1,260 Descending Denver Center
12:04PM 40.4772 -105.1814 112° Southeast 349 402 16,800 -1,260 Descending Denver Center
12:06PM 40.4444 -105.0653 110° East 335 386 15,400 -1,140 Descending Denver Center
12:07PM 40.4103 -104.9556 112° Southeast 328 377 14,500 -1,380 Descending Denver Center
12:08PM 40.3367 -104.8856 144° Southeast 312 359 12,600 -1,800 Descending Denver Center
12:09PM 40.2578 -104.8350 154° Southeast 313 360 10,900 -1,560 Descending Denver Center
12:10PM 40.1792 -104.7950 159° South 307 353 9,400 -780 Descending Denver Center
12:11PM 40.1086 -104.7592 159° South 255 293 9,300 -540 Descending Denver Center
12:12PM 40.0575 -104.7331 159° South 199 229 8,400 -900 Descending Denver Center